createdAt,value
2023-08-07T00:02:55.797Z,21.66
2023-08-07T00:05:57.362Z,21.66
2023-08-07T00:08:58.899Z,21.66
2023-08-07T00:12:00.543Z,21.65
2023-08-07T00:15:03.489Z,21.66
2023-08-07T00:18:05.224Z,21.67
2023-08-07T00:21:06.768Z,21.66
2023-08-07T00:24:08.332Z,21.65
2023-08-07T00:27:11.611Z,21.64
2023-08-07T00:30:13.171Z,21.63
2023-08-07T00:33:14.701Z,21.62
2023-08-07T00:36:17.487Z,21.62
2023-08-07T00:39:19.052Z,21.61
2023-08-07T00:42:20.681Z,21.63
2023-08-07T00:45:22.382Z,21.60
2023-08-07T00:48:24.057Z,21.59
2023-08-07T00:51:25.652Z,21.58
2023-08-07T00:54:27.437Z,21.59
2023-08-07T00:57:29.224Z,21.58
2023-08-07T01:00:31.534Z,21.58
2023-08-07T01:03:33.411Z,21.56
2023-08-07T01:06:35.623Z,21.55
2023-08-07T01:09:37.286Z,21.55
2023-08-07T01:12:49.449Z,21.55
2023-08-07T01:15:56.755Z,21.54
2023-08-07T01:19:01.850Z,21.53
2023-08-07T01:22:07.300Z,21.52
2023-08-07T01:25:10.124Z,21.51
2023-08-07T01:28:25.514Z,21.52
2023-08-07T01:31:32.797Z,21.51
2023-08-07T01:34:37.472Z,21.48
2023-08-07T01:37:42.212Z,21.48
2023-08-07T01:40:45.151Z,21.47
2023-08-07T01:43:47.192Z,21.46
2023-08-07T01:46:48.856Z,21.45
2023-08-07T01:49:50.442Z,21.43
2023-08-07T01:52:52.594Z,21.44
2023-08-07T01:55:54.211Z,21.43
2023-08-07T01:58:55.803Z,21.42
2023-08-07T02:01:57.439Z,21.42
2023-08-07T02:04:59.214Z,21.41
2023-08-07T02:08:00.886Z,21.39
2023-08-07T02:11:03.821Z,21.41
2023-08-07T02:14:05.430Z,21.40
2023-08-07T02:17:07.037Z,21.39
2023-08-07T02:20:09.302Z,21.39
2023-08-07T02:23:10.839Z,21.37
2023-08-07T02:26:12.402Z,21.36
2023-08-07T02:29:13.985Z,21.36
2023-08-07T02:32:15.570Z,21.36
2023-08-07T02:35:17.287Z,21.36
2023-08-07T02:38:19.065Z,21.35
2023-08-07T02:41:21.506Z,21.34
2023-08-07T02:44:23.076Z,21.35
2023-08-07T02:47:24.727Z,21.33
2023-08-07T02:50:28.583Z,21.33
2023-08-07T02:53:30.200Z,21.33
2023-08-07T02:56:31.866Z,21.33
2023-08-07T02:59:33.445Z,21.32
2023-08-07T03:02:35.117Z,21.31
2023-08-07T03:05:36.677Z,21.31
2023-08-07T03:08:38.270Z,21.30
2023-08-07T03:11:39.804Z,21.30
2023-08-07T03:14:41.433Z,21.28
2023-08-07T03:17:43.305Z,21.29
2023-08-07T03:20:45.443Z,21.27
2023-08-07T03:23:47.141Z,21.27
2023-08-07T03:26:50.178Z,21.26
2023-08-07T03:29:52.049Z,21.27
2023-08-07T03:32:54.824Z,21.26
2023-08-07T03:35:56.968Z,21.25
2023-08-07T03:38:58.982Z,21.25
2023-08-07T03:42:00.754Z,21.25
2023-08-07T03:45:02.435Z,21.24
2023-08-07T03:48:04.206Z,21.23
2023-08-07T03:51:09.115Z,21.24
2023-08-07T03:54:15.057Z,21.23
2023-08-07T03:57:16.644Z,21.23
2023-08-07T04:00:18.436Z,21.23
2023-08-07T04:03:21.331Z,21.23
2023-08-07T04:06:23.050Z,21.21
2023-08-07T04:09:24.917Z,21.21
2023-08-07T04:12:26.531Z,21.21
2023-08-07T04:15:28.183Z,21.20
2023-08-07T04:18:30.127Z,21.20
2023-08-07T04:21:31.926Z,21.20
2023-08-07T04:24:33.553Z,21.18
2023-08-07T04:27:35.089Z,21.17
2023-08-07T04:30:36.664Z,21.16
2023-08-07T04:33:38.274Z,21.16
2023-08-07T04:36:39.824Z,21.15
2023-08-07T04:39:41.407Z,21.16
2023-08-07T04:42:42.973Z,21.16
2023-08-07T04:45:46.304Z,21.16
2023-08-07T04:48:49.458Z,21.17
2023-08-07T04:51:51.028Z,21.14
2023-08-07T04:54:52.615Z,21.16
2023-08-07T04:57:55.583Z,21.15
2023-08-07T05:00:58.108Z,21.14
2023-08-07T05:04:00.320Z,21.15
2023-08-07T05:07:02.078Z,21.15
2023-08-07T05:10:04.066Z,21.15
2023-08-07T05:13:05.645Z,21.14
2023-08-07T05:16:07.338Z,21.16
2023-08-07T05:19:09.126Z,21.16
2023-08-07T05:22:10.713Z,21.16
2023-08-07T05:25:16.642Z,21.16
2023-08-07T05:28:18.282Z,21.18
2023-08-07T05:31:19.953Z,21.17
2023-08-07T05:34:21.908Z,21.17
2023-08-07T05:37:23.493Z,21.18
2023-08-07T05:40:25.032Z,21.19
2023-08-07T05:43:26.575Z,21.18
2023-08-07T05:46:28.242Z,21.19
2023-08-07T05:49:29.783Z,21.19
2023-08-07T05:52:31.338Z,21.19
2023-08-07T05:55:32.983Z,21.20
2023-08-07T05:58:34.545Z,21.20
2023-08-07T06:01:37.998Z,21.20
2023-08-07T06:04:39.946Z,21.21
2023-08-07T06:07:41.550Z,21.21
2023-08-07T06:10:43.094Z,21.20
2023-08-07T06:13:44.696Z,21.20
2023-08-07T06:16:46.645Z,21.21
2023-08-07T06:19:48.313Z,21.21
2023-08-07T06:22:49.868Z,21.21
2023-08-07T06:25:55.422Z,21.21
2023-08-07T06:28:59.278Z,21.21
2023-08-07T06:32:01.118Z,21.21
2023-08-07T06:35:03.690Z,21.22
2023-08-07T06:38:05.583Z,21.22
2023-08-07T06:41:07.220Z,21.23
2023-08-07T06:44:08.852Z,21.23
2023-08-07T06:47:11.172Z,21.22
2023-08-07T06:50:14.945Z,21.22
2023-08-07T06:53:17.008Z,21.23
2023-08-07T06:56:19.047Z,21.23
2023-08-07T06:59:20.626Z,21.23
2023-08-07T07:02:22.352Z,21.22
2023-08-07T07:05:23.961Z,21.22
2023-08-07T07:08:25.583Z,21.23
2023-08-07T07:11:27.159Z,21.22
2023-08-07T07:14:28.716Z,21.23
2023-08-07T07:17:30.326Z,21.23
2023-08-07T07:20:32.227Z,21.24
2023-08-07T07:23:33.755Z,21.23
2023-08-07T07:26:35.323Z,21.24
2023-08-07T07:29:36.943Z,21.23
2023-08-07T07:32:38.569Z,21.23
2023-08-07T07:35:40.359Z,21.23
2023-08-07T07:38:43.123Z,21.24
2023-08-07T07:41:45.829Z,21.23
2023-08-07T07:44:47.407Z,21.24
2023-08-07T07:47:49.019Z,21.23
2023-08-07T07:50:50.572Z,21.23
2023-08-07T07:54:11.954Z,21.24
2023-08-07T07:57:13.844Z,21.22
2023-08-07T08:00:15.810Z,21.23
2023-08-07T08:03:17.470Z,21.23
2023-08-07T08:06:19.298Z,21.23
2023-08-07T08:09:20.843Z,21.23
2023-08-07T08:12:22.993Z,21.22
2023-08-07T08:15:25.472Z,21.22
2023-08-07T08:18:27.234Z,21.21
2023-08-07T08:21:29.051Z,21.21
2023-08-07T08:24:32.551Z,21.20
2023-08-07T08:27:34.125Z,21.20
2023-08-07T08:30:35.799Z,21.22
2023-08-07T08:33:37.412Z,21.24
2023-08-07T08:36:39.006Z,21.23
2023-08-07T08:39:40.595Z,21.22
2023-08-07T08:42:42.588Z,21.21
2023-08-07T08:45:45.147Z,21.22
2023-08-07T08:48:57.500Z,21.23
2023-08-07T08:52:00.061Z,21.22
2023-08-07T08:55:02.700Z,21.21
2023-08-07T08:58:05.121Z,21.15
2023-08-07T09:01:07.961Z,21.10
2023-08-07T09:04:11.157Z,21.06
2023-08-07T09:07:20.982Z,21.01
2023-08-07T09:10:24.378Z,20.94
2023-08-07T09:13:29.308Z,20.89
2023-08-07T09:16:32.303Z,20.82
2023-08-07T09:19:34.233Z,20.76
2023-08-07T09:22:36.210Z,20.68
2023-08-07T09:25:37.852Z,20.62
2023-08-07T09:28:39.737Z,20.58
2023-08-07T09:31:46.481Z,20.57
2023-08-07T09:34:49.947Z,20.53
2023-08-07T09:37:52.002Z,20.50
2023-08-07T09:40:53.561Z,20.47
2023-08-07T09:43:55.224Z,20.47
2023-08-07T09:46:58.096Z,20.47
2023-08-07T09:49:59.924Z,20.46
2023-08-07T09:53:01.660Z,20.48
2023-08-07T09:56:03.993Z,20.47
2023-08-07T09:59:05.868Z,20.46
2023-08-07T10:02:07.627Z,20.46
2023-08-07T10:05:11.495Z,20.51
2023-08-07T10:08:13.346Z,20.52
2023-08-07T10:11:18.347Z,20.56
2023-08-07T10:14:20.073Z,20.59
2023-08-07T10:17:24.857Z,20.64
2023-08-07T10:20:29.241Z,20.66
2023-08-07T10:23:31.901Z,20.68
2023-08-07T10:26:35.507Z,20.73
2023-08-07T10:29:38.837Z,20.75
2023-08-07T10:32:41.550Z,20.77
2023-08-07T10:35:49.029Z,20.80
2023-08-07T10:38:54.561Z,20.80
2023-08-07T10:41:56.656Z,20.81
2023-08-07T10:45:02.461Z,20.83
2023-08-07T10:48:08.603Z,20.85
2023-08-07T10:51:13.382Z,20.87
2023-08-07T10:54:15.039Z,20.85
2023-08-07T10:57:18.527Z,20.87
2023-08-07T11:00:27.987Z,20.89
2023-08-07T11:03:29.720Z,20.87
2023-08-07T11:06:34.526Z,20.89
2023-08-07T11:09:36.529Z,20.87
2023-08-07T11:12:38.853Z,20.88
2023-08-07T11:15:40.484Z,20.88
2023-08-07T11:18:43.342Z,20.89
2023-08-07T11:21:45.713Z,20.88
2023-08-07T11:24:47.994Z,20.89
2023-08-07T11:27:49.559Z,20.88
2023-08-07T11:30:54.195Z,20.90
2023-08-07T11:34:03.505Z,20.89
2023-08-07T11:37:05.101Z,20.87
2023-08-07T11:40:07.572Z,20.89
2023-08-07T11:43:10.708Z,20.89
2023-08-07T11:46:15.146Z,20.90
2023-08-07T11:49:16.822Z,20.89
2023-08-07T11:52:18.643Z,20.89
2023-08-07T11:55:20.268Z,20.88
2023-08-07T11:58:22.994Z,20.92
2023-08-07T12:01:27.161Z,20.96
2023-08-07T12:04:32.655Z,21.00
2023-08-07T12:07:34.269Z,21.02
2023-08-07T12:10:36.580Z,21.02
2023-08-07T12:13:43.395Z,21.04
2023-08-07T12:16:48.979Z,21.03
2023-08-07T12:19:52.111Z,21.04
2023-08-07T12:22:53.871Z,21.02
2023-08-07T12:25:56.180Z,21.01
2023-08-07T12:28:58.227Z,21.00
2023-08-07T12:32:04.272Z,20.97
2023-08-07T12:38:15.721Z,20.94
2023-08-07T12:44:21.891Z,20.91
2023-08-07T12:47:23.469Z,20.90
2023-08-07T12:50:25.144Z,20.90
2023-08-07T12:53:27.029Z,20.89
2023-08-07T12:56:29.075Z,20.88
2023-08-07T12:59:30.739Z,20.87
2023-08-07T13:02:32.371Z,20.87
2023-08-07T13:05:34.788Z,20.87
2023-08-07T13:08:38.665Z,20.85
2023-08-07T13:11:40.758Z,20.85
2023-08-07T13:14:42.301Z,20.83
2023-08-07T13:17:45.042Z,20.84
2023-08-07T13:20:46.788Z,20.83
2023-08-07T13:23:48.251Z,20.82
2023-08-07T13:26:49.757Z,20.82
2023-08-07T13:29:51.275Z,20.81
2023-08-07T13:32:52.775Z,20.81
2023-08-07T13:35:54.272Z,20.81
2023-08-07T13:38:55.764Z,20.81
2023-08-07T13:41:57.592Z,20.79
2023-08-07T13:44:59.617Z,20.80
2023-08-07T13:48:01.515Z,20.79
2023-08-07T13:51:08.009Z,20.79
2023-08-07T13:54:09.644Z,20.78
2023-08-07T13:57:11.204Z,20.78
2023-08-07T14:00:13.581Z,20.78
2023-08-07T14:03:15.310Z,20.77
2023-08-07T14:06:17.101Z,20.76
2023-08-07T14:09:22.565Z,20.76
2023-08-07T14:12:24.084Z,20.76
2023-08-07T14:15:25.878Z,20.76
2023-08-07T14:18:28.047Z,20.76
2023-08-07T14:21:29.542Z,20.76
2023-08-07T14:24:31.134Z,20.73
2023-08-07T14:27:32.678Z,20.73
2023-08-07T14:30:34.264Z,20.73
2023-08-07T14:33:36.516Z,20.70
2023-08-07T14:36:38.074Z,20.71
2023-08-07T14:39:39.665Z,20.70
2023-08-07T14:42:41.255Z,20.70
2023-08-07T14:45:42.860Z,20.69
2023-08-07T14:48:44.380Z,20.69
2023-08-07T14:51:45.944Z,20.69
2023-08-07T14:54:47.563Z,20.69
2023-08-07T14:57:49.116Z,20.69
2023-08-07T15:00:54.394Z,20.69
2023-08-07T15:03:56.033Z,20.70
2023-08-07T15:06:57.765Z,20.69
2023-08-07T15:09:59.320Z,20.69
2023-08-07T15:13:01.547Z,20.69
2023-08-07T15:16:03.128Z,20.69
2023-08-07T15:19:04.761Z,20.69
2023-08-07T15:22:06.458Z,20.61
2023-08-07T15:25:10.506Z,20.54
2023-08-07T15:28:12.142Z,20.43
2023-08-07T15:31:13.687Z,20.38
2023-08-07T15:34:15.219Z,20.34
2023-08-07T15:37:16.770Z,20.29
2023-08-07T15:40:18.362Z,20.30
2023-08-07T15:43:19.858Z,20.29
2023-08-07T15:46:21.433Z,20.32
2023-08-07T15:49:24.121Z,20.35
2023-08-07T15:52:26.667Z,20.39
2023-08-07T15:55:28.715Z,20.42
2023-08-07T15:58:30.234Z,20.46
2023-08-07T16:01:31.837Z,20.49
2023-08-07T16:04:33.398Z,20.53
2023-08-07T16:07:34.907Z,20.55
2023-08-07T16:10:36.577Z,20.57
2023-08-07T16:13:38.102Z,20.59
2023-08-07T16:16:39.757Z,20.62
2023-08-07T16:19:42.018Z,20.66
2023-08-07T16:22:43.653Z,20.68
2023-08-07T16:25:45.190Z,20.70
2023-08-07T16:28:46.967Z,20.71
2023-08-07T16:31:48.642Z,20.72
2023-08-07T16:34:50.230Z,20.75
2023-08-07T16:37:51.790Z,20.76
2023-08-07T16:40:53.358Z,20.78
2023-08-07T16:43:54.859Z,20.79
2023-08-07T16:46:56.741Z,20.81
2023-08-07T16:49:58.890Z,20.82
2023-08-07T16:53:01.136Z,20.85
2023-08-07T16:56:02.732Z,20.84
2023-08-07T16:59:04.292Z,20.87
2023-08-07T17:02:07.968Z,20.90
2023-08-07T17:05:09.684Z,20.91
2023-08-07T17:08:11.167Z,20.93
2023-08-07T17:11:12.971Z,20.96
2023-08-07T17:14:14.557Z,20.96
2023-08-07T17:17:16.087Z,20.97
2023-08-07T17:20:17.656Z,20.98
2023-08-07T17:23:19.199Z,20.97
2023-08-07T17:26:20.694Z,20.98
2023-08-07T17:29:23.475Z,20.98
2023-08-07T17:32:25.037Z,20.98
2023-08-07T17:35:26.622Z,20.98
2023-08-07T17:38:28.436Z,20.99
2023-08-07T17:41:30.494Z,20.98
2023-08-07T17:44:32.018Z,20.98
2023-08-07T17:47:33.673Z,20.99
2023-08-07T17:50:35.242Z,20.99
2023-08-07T17:53:36.860Z,20.99
2023-08-07T17:56:38.434Z,20.97
2023-08-07T17:59:39.986Z,20.96
2023-08-07T18:02:41.744Z,20.95
2023-08-07T18:05:43.395Z,20.95
2023-08-07T18:08:44.916Z,20.94
2023-08-07T18:11:46.419Z,20.95
2023-08-07T18:14:48.036Z,20.96
2023-08-07T18:17:49.709Z,20.95
2023-08-07T18:20:51.272Z,20.94
2023-08-07T18:23:52.776Z,20.94
2023-08-07T18:26:54.324Z,20.93
2023-08-07T18:29:56.068Z,20.92
2023-08-07T18:32:57.714Z,20.92
2023-08-07T18:36:01.113Z,20.90
2023-08-07T18:39:03.163Z,20.91
2023-08-07T18:42:04.940Z,20.91
2023-08-07T18:45:06.992Z,20.90
2023-08-07T18:48:09.166Z,20.91
2023-08-07T18:51:10.830Z,20.90
2023-08-07T18:54:12.333Z,20.90
2023-08-07T18:57:16.485Z,20.89
2023-08-07T19:00:18.558Z,20.89
2023-08-07T19:03:21.149Z,20.88
2023-08-07T19:06:23.198Z,20.89
2023-08-07T19:09:26.215Z,20.88
2023-08-07T19:12:27.830Z,20.87
2023-08-07T19:15:29.449Z,20.88
2023-08-07T19:18:31.498Z,20.87
2023-08-07T19:21:33.019Z,20.87
2023-08-07T19:24:34.812Z,20.85
2023-08-07T19:27:36.298Z,20.85
2023-08-07T19:30:39.350Z,20.86
2023-08-07T19:33:41.946Z,20.86
2023-08-07T19:36:43.582Z,20.83
2023-08-07T19:39:45.237Z,20.83
2023-08-07T19:42:46.765Z,20.82
2023-08-07T19:45:48.479Z,20.82
2023-08-07T19:48:50.228Z,20.81
2023-08-07T19:51:51.787Z,20.78
2023-08-07T19:54:53.374Z,20.78
2023-08-07T19:57:54.992Z,20.79
2023-08-07T20:00:56.735Z,20.77
2023-08-07T20:03:58.461Z,20.78
2023-08-07T20:07:03.835Z,20.76
2023-08-07T20:10:10.665Z,20.77
2023-08-07T20:13:12.317Z,20.76
2023-08-07T20:16:13.958Z,20.76
2023-08-07T20:19:15.628Z,20.75
2023-08-07T20:22:17.492Z,20.75
2023-08-07T20:25:19.190Z,20.75
2023-08-07T20:28:20.776Z,20.74
2023-08-07T20:31:22.435Z,20.75
2023-08-07T20:34:24.536Z,20.74
2023-08-07T20:37:26.827Z,20.74
2023-08-07T20:40:31.301Z,20.73
2023-08-07T20:43:33.306Z,20.73
2023-08-07T20:46:35.066Z,20.73
2023-08-07T20:49:37.153Z,20.73
2023-08-07T20:52:39.109Z,20.73
2023-08-07T20:55:40.650Z,20.74
2023-08-07T20:58:42.337Z,20.74
2023-08-07T21:01:47.908Z,20.73
2023-08-07T21:04:49.631Z,20.75
2023-08-07T21:07:51.322Z,20.75
2023-08-07T21:10:55.808Z,20.74
2023-08-07T21:13:57.846Z,20.75
2023-08-07T21:16:59.648Z,20.74
2023-08-07T21:20:01.406Z,20.75
2023-08-07T21:23:03.484Z,20.75
2023-08-07T21:26:05.272Z,20.74
2023-08-07T21:29:06.850Z,20.74
2023-08-07T21:32:08.693Z,20.75
2023-08-07T21:35:13.900Z,20.74
2023-08-07T21:38:16.725Z,20.74
2023-08-07T21:41:18.978Z,20.73
2023-08-07T21:44:20.673Z,20.73
2023-08-07T21:47:22.229Z,20.73
2023-08-07T21:50:23.821Z,20.74
2023-08-07T21:53:25.376Z,20.73
2023-08-07T21:56:26.908Z,20.74
2023-08-07T21:59:29.246Z,20.73
2023-08-07T22:02:30.963Z,20.73
2023-08-07T22:05:32.609Z,20.73
2023-08-07T22:08:34.153Z,20.73
2023-08-07T22:11:35.665Z,20.72
2023-08-07T22:14:37.159Z,20.74
2023-08-07T22:17:38.888Z,20.74
2023-08-07T22:20:40.600Z,20.73
2023-08-07T22:23:42.196Z,20.73
2023-08-07T22:26:43.761Z,20.73
2023-08-07T22:29:46.029Z,20.73
2023-08-07T22:32:48.547Z,20.73
2023-08-07T22:35:50.298Z,20.73
2023-08-07T22:38:51.859Z,20.73
2023-08-07T22:41:53.528Z,20.73
2023-08-07T22:44:55.227Z,20.72
2023-08-07T22:48:03.381Z,20.72
2023-08-07T22:51:06.060Z,20.71
2023-08-07T22:54:07.570Z,20.71
2023-08-07T22:57:09.166Z,20.69
2023-08-07T23:00:11.404Z,20.70
2023-08-07T23:03:13.135Z,20.69
2023-08-07T23:06:14.796Z,20.68
2023-08-07T23:09:16.382Z,20.67
2023-08-07T23:12:18.216Z,20.67
2023-08-07T23:15:20.537Z,20.65
2023-08-07T23:18:22.122Z,20.63
2023-08-07T23:21:23.839Z,20.61
2023-08-07T23:24:25.417Z,20.61
2023-08-07T23:27:27.041Z,20.61
2023-08-07T23:30:29.974Z,20.62
2023-08-07T23:33:31.715Z,20.59
2023-08-07T23:36:33.984Z,20.60
2023-08-07T23:39:35.572Z,20.58
2023-08-07T23:42:37.121Z,20.58
2023-08-07T23:45:38.675Z,20.57
2023-08-07T23:48:40.265Z,20.56
2023-08-07T23:51:42.311Z,20.57
2023-08-07T23:54:43.901Z,20.56
2023-08-07T23:57:45.478Z,20.56
